sensor_id;sensor_type;location;lat;lon;timestamp;pressure;altitude;pressure_sealevel;temperature;humidity
8705;BME280;4389;41.932;25.904;2024-02-23T00:01:53;-16272.56;;;7.67;100.00
8705;BME280;4389;41.932;25.904;2024-02-23T00:04:20;-16272.28;;;7.66;100.00
8705;BME280;4389;41.932;25.904;2024-02-23T00:06:47;-16272.28;;;7.66;100.00
8705;BME280;4389;41.932;25.904;2024-02-23T00:09:15;-16274.69;;;7.75;100.00
8705;BME280;4389;41.932;25.904;2024-02-23T00:11:42;-16275.63;;;7.78;100.00
8705;BME280;4389;41.932;25.904;2024-02-23T00:14:10;-16276.03;;;7.80;100.00
8705;BME280;4389;41.932;25.904;2024-02-23T00:16:38;-16275.47;;;7.78;100.00
8705;BME280;4389;41.932;25.904;2024-02-23T00:19:05;-16275.88;;;7.79;100.00
8705;BME280;4389;41.932;25.904;2024-02-23T00:21:32;-16274.94;;;7.76;100.00
8705;BME280;4389;41.932;25.904;2024-02-23T00:23:59;-16274.94;;;7.76;100.00
8705;BME280;4389;41.932;25.904;2024-02-23T00:26:28;-16273.34;;;7.70;100.00
8705;BME280;4389;41.932;25.904;2024-02-23T00:28:55;-16272.81;;;7.68;100.00
8705;BME280;4389;41.932;25.904;2024-02-23T00:31:22;-16274.94;;;7.76;100.00
8705;BME280;4389;41.932;25.904;2024-02-23T00:33:49;-16273.75;;;7.71;100.00
8705;BME280;4389;41.932;25.904;2024-02-23T00:36:16;-16271.34;;;7.62;100.00
8705;BME280;4389;41.932;25.904;2024-02-23T00:38:42;-16273.34;;;7.70;100.00
8705;BME280;4389;41.932;25.904;2024-02-23T00:41:09;-16273.09;;;7.69;100.00
8705;BME280;4389;41.932;25.904;2024-02-23T00:43:41;-16272.28;;;7.66;100.00
8705;BME280;4389;41.932;25.904;2024-02-23T00:46:08;-16273.88;;;7.72;100.00
8705;BME280;4389;41.932;25.904;2024-02-23T00:48:35;-16274.16;;;7.73;100.00
8705;BME280;4389;41.932;25.904;2024-02-23T00:51:03;-16274.41;;;7.74;100.00
8705;BME280;4389;41.932;25.904;2024-02-23T00:53:30;-16275.88;;;7.79;100.00
8705;BME280;4389;41.932;25.904;2024-02-23T00:55:57;-16273.63;;;7.71;100.00
8705;BME280;4389;41.932;25.904;2024-02-23T00:58:24;-16272.03;;;7.65;100.00
8705;BME280;4389;41.932;25.904;2024-02-23T01:00:52;-16271.88;;;7.64;100.00
8705;BME280;4389;41.932;25.904;2024-02-23T01:03:19;-16272.41;;;7.66;100.00
8705;BME280;4389;41.932;25.904;2024-02-23T01:05:46;-16271.09;;;7.61;100.00
8705;BME280;4389;41.932;25.904;2024-02-23T01:08:13;-16273.88;;;7.72;100.00
8705;BME280;4389;41.932;25.904;2024-02-23T01:10:40;-16270.69;;;7.60;100.00
8705;BME280;4389;41.932;25.904;2024-02-23T01:13:07;-16269.34;;;7.55;100.00
8705;BME280;4389;41.932;25.904;2024-02-23T01:15:34;-16268.28;;;7.51;100.00
8705;BME280;4389;41.932;25.904;2024-02-23T01:18:03;-16268.56;;;7.52;100.00
8705;BME280;4389;41.932;25.904;2024-02-23T01:20:31;-16268.56;;;7.52;100.00
8705;BME280;4389;41.932;25.904;2024-02-23T01:22:58;-16266.81;;;7.45;100.00
8705;BME280;4389;41.932;25.904;2024-02-23T01:25:24;-16268.03;;;7.50;100.00
8705;BME280;4389;41.932;25.904;2024-02-23T01:27:52;-16269.09;;;7.54;100.00
8705;BME280;4389;41.932;25.904;2024-02-23T01:30:19;-16266.69;;;7.45;100.00
8705;BME280;4389;41.932;25.904;2024-02-23T01:32:45;-16268.44;;;7.51;100.00
8705;BME280;4389;41.932;25.904;2024-02-23T01:35:14;-16270.16;;;7.58;100.00
8705;BME280;4389;41.932;25.904;2024-02-23T01:37:41;-16272.81;;;7.68;100.00
8705;BME280;4389;41.932;25.904;2024-02-23T01:40:08;-16271.50;;;7.63;100.00
8705;BME280;4389;41.932;25.904;2024-02-23T01:42:35;-16271.50;;;7.63;100.00
8705;BME280;4389;41.932;25.904;2024-02-23T01:45:02;-16271.09;;;7.61;100.00
8705;BME280;4389;41.932;25.904;2024-02-23T01:47:29;-16273.09;;;7.69;100.00
8705;BME280;4389;41.932;25.904;2024-02-23T01:49:57;-16271.75;;;7.64;100.00
8705;BME280;4389;41.932;25.904;2024-02-23T01:52:27;-16273.50;;;7.70;100.00
8705;BME280;4389;41.932;25.904;2024-02-23T01:54:54;-16273.50;;;7.70;100.00
8705;BME280;4389;41.932;25.904;2024-02-23T01:57:22;-16270.16;;;7.58;100.00
8705;BME280;4389;41.932;25.904;2024-02-23T01:59:49;-16268.97;;;7.53;100.00
8705;BME280;4389;41.932;25.904;2024-02-23T02:02:16;-16270.44;;;7.59;100.00
8705;BME280;4389;41.932;25.904;2024-02-23T02:04:43;-16268.03;;;7.50;100.00
8705;BME280;4389;41.932;25.904;2024-02-23T02:07:10;-16269.09;;;7.54;100.00
8705;BME280;4389;41.932;25.904;2024-02-23T02:09:38;-16268.56;;;7.52;100.00
8705;BME280;4389;41.932;25.904;2024-02-23T02:12:05;-16268.03;;;7.50;100.00
8705;BME280;4389;41.932;25.904;2024-02-23T02:14:32;-16266.56;;;7.44;100.00
8705;BME280;4389;41.932;25.904;2024-02-23T02:16:59;-16266.69;;;7.45;100.00
8705;BME280;4389;41.932;25.904;2024-02-23T02:19:25;-16265.63;;;7.41;100.00
8705;BME280;4389;41.932;25.904;2024-02-23T02:21:52;-16263.63;;;7.33;100.00
8705;BME280;4389;41.932;25.904;2024-02-23T02:24:19;-16263.38;;;7.32;100.00
8705;BME280;4389;41.932;25.904;2024-02-23T02:26:47;-16262.84;;;7.30;100.00
8705;BME280;4389;41.932;25.904;2024-02-23T02:29:15;-16260.03;;;7.20;100.00
8705;BME280;4389;41.932;25.904;2024-02-23T02:31:42;-16256.56;;;7.07;100.00
8705;BME280;4389;41.932;25.904;2024-02-23T02:34:09;-16258.03;;;7.12;100.00
8705;BME280;4389;41.932;25.904;2024-02-23T02:36:38;-16257.38;;;7.10;100.00
8705;BME280;4389;41.932;25.904;2024-02-23T02:39:05;-16257.09;;;7.09;100.00
8705;BME280;4389;41.932;25.904;2024-02-23T02:41:32;-16257.09;;;7.09;100.00
8705;BME280;4389;41.932;25.904;2024-02-23T02:44:01;-16256.84;;;7.08;100.00
8705;BME280;4389;41.932;25.904;2024-02-23T02:46:28;-16255.78;;;7.04;100.00
8705;BME280;4389;41.932;25.904;2024-02-23T02:48:54;-16254.19;;;6.98;100.00
8705;BME280;4389;41.932;25.904;2024-02-23T02:51:21;-16254.97;;;7.01;100.00
8705;BME280;4389;41.932;25.904;2024-02-23T02:53:48;-16255.25;;;7.02;100.00
8705;BME280;4389;41.932;25.904;2024-02-23T02:56:15;-16254.03;;;6.97;100.00
8705;BME280;4389;41.932;25.904;2024-02-23T02:58:42;-16254.97;;;7.01;100.00
8705;BME280;4389;41.932;25.904;2024-02-23T03:01:10;-16255.50;;;7.03;100.00
8705;BME280;4389;41.932;25.904;2024-02-23T03:03:37;-16253.91;;;6.97;100.00
8705;BME280;4389;41.932;25.904;2024-02-23T03:06:04;-16253.78;;;6.96;100.00
8705;BME280;4389;41.932;25.904;2024-02-23T03:08:31;-16253.66;;;6.96;100.00
8705;BME280;4389;41.932;25.904;2024-02-23T03:10:57;-16254.56;;;6.99;100.00
8705;BME280;4389;41.932;25.904;2024-02-23T03:13:24;-16253.25;;;6.94;100.00
8705;BME280;4389;41.932;25.904;2024-02-23T03:15:51;-16253.66;;;6.96;100.00
8705;BME280;4389;41.932;25.904;2024-02-23T03:18:19;-16251.78;;;6.89;100.00
8705;BME280;4389;41.932;25.904;2024-02-23T03:20:46;-16251.25;;;6.87;100.00
8705;BME280;4389;41.932;25.904;2024-02-23T03:23:13;-16248.31;;;6.76;100.00
8705;BME280;4389;41.932;25.904;2024-02-23T03:25:40;-16245.66;;;6.66;100.00
8705;BME280;4389;41.932;25.904;2024-02-23T03:28:07;-16246.72;;;6.70;100.00
8705;BME280;4389;41.932;25.904;2024-02-23T03:30:34;-16244.84;;;6.63;100.00
8705;BME280;4389;41.932;25.904;2024-02-23T03:33:01;-16245.38;;;6.65;100.00
8705;BME280;4389;41.932;25.904;2024-02-23T03:35:29;-16243.53;;;6.58;100.00
8705;BME280;4389;41.932;25.904;2024-02-23T03:37:56;-16245.25;;;6.64;100.00
8705;BME280;4389;41.932;25.904;2024-02-23T03:40:22;-16243.66;;;6.58;100.00
8705;BME280;4389;41.932;25.904;2024-02-23T03:42:49;-16245.13;;;6.64;100.00
8705;BME280;4389;41.932;25.904;2024-02-23T03:45:16;-16244.31;;;6.61;100.00
8705;BME280;4389;41.932;25.904;2024-02-23T03:47:43;-16248.84;;;6.78;100.00
8705;BME280;4389;41.932;25.904;2024-02-23T03:50:10;-16248.59;;;6.77;100.00
8705;BME280;4389;41.932;25.904;2024-02-23T03:52:38;-16248.84;;;6.78;100.00
8705;BME280;4389;41.932;25.904;2024-02-23T03:55:06;-16248.31;;;6.76;100.00
8705;BME280;4389;41.932;25.904;2024-02-23T03:57:33;-16247.38;;;6.72;100.00
8705;BME280;4389;41.932;25.904;2024-02-23T04:00:00;-16247.53;;;6.73;100.00
8705;BME280;4389;41.932;25.904;2024-02-23T04:02:28;-16248.06;;;6.75;100.00
8705;BME280;4389;41.932;25.904;2024-02-23T04:04:55;-16250.44;;;6.84;100.00
8705;BME280;4389;41.932;25.904;2024-02-23T04:07:22;-16248.44;;;6.76;100.00
8705;BME280;4389;41.932;25.904;2024-02-23T04:09:50;-16246.19;;;6.68;100.00
8705;BME280;4389;41.932;25.904;2024-02-23T04:12:20;-16245.78;;;6.66;100.00
8705;BME280;4389;41.932;25.904;2024-02-23T04:14:47;-16248.06;;;6.75;100.00
8705;BME280;4389;41.932;25.904;2024-02-23T04:17:14;-16246.44;;;6.69;100.00
8705;BME280;4389;41.932;25.904;2024-02-23T04:19:42;-16245.78;;;6.66;100.00
8705;BME280;4389;41.932;25.904;2024-02-23T04:22:09;-16244.31;;;6.61;100.00
8705;BME280;4389;41.932;25.904;2024-02-23T04:24:38;-16245.25;;;6.64;100.00
8705;BME280;4389;41.932;25.904;2024-02-23T04:27:07;-16243.53;;;6.58;100.00
8705;BME280;4389;41.932;25.904;2024-02-23T04:29:34;-16238.47;;;6.39;100.00
8705;BME280;4389;41.932;25.904;2024-02-23T04:32:01;-16237.66;;;6.36;100.00
8705;BME280;4389;41.932;25.904;2024-02-23T04:34:28;-16237.25;;;6.34;100.00
8705;BME280;4389;41.932;25.904;2024-02-23T04:36:55;-16237.38;;;6.35;100.00
8705;BME280;4389;41.932;25.904;2024-02-23T04:39:22;-16235.41;;;6.27;100.00
8705;BME280;4389;41.932;25.904;2024-02-23T04:41:49;-16234.72;;;6.25;100.00
8705;BME280;4389;41.932;25.904;2024-02-23T04:44:17;-16236.19;;;6.30;100.00
8705;BME280;4389;41.932;25.904;2024-02-23T04:46:44;-16236.84;;;6.33;100.00
8705;BME280;4389;41.932;25.904;2024-02-23T04:49:11;-16238.47;;;6.39;100.00
8705;BME280;4389;41.932;25.904;2024-02-23T04:51:38;-16241.38;;;6.50;100.00
8705;BME280;4389;41.932;25.904;2024-02-23T04:54:05;-16241.38;;;6.50;100.00
8705;BME280;4389;41.932;25.904;2024-02-23T04:56:33;-16241.38;;;6.50;100.00
8705;BME280;4389;41.932;25.904;2024-02-23T04:58:59;-16241.38;;;6.50;100.00
8705;BME280;4389;41.932;25.904;2024-02-23T05:01:28;-16241.38;;;6.50;100.00
8705;BME280;4389;41.932;25.904;2024-02-23T05:03:54;-16237.00;;;6.33;100.00
8705;BME280;4389;41.932;25.904;2024-02-23T05:06:21;-16233.13;;;6.19;100.00
8705;BME280;4389;41.932;25.904;2024-02-23T05:08:48;-16234.47;;;6.24;100.00
8705;BME280;4389;41.932;25.904;2024-02-23T05:11:15;-16234.19;;;6.23;100.00
8705;BME280;4389;41.932;25.904;2024-02-23T05:13:43;-16235.53;;;6.28;100.00
8705;BME280;4389;41.932;25.904;2024-02-23T05:16:10;-16237.66;;;6.36;100.00
8705;BME280;4389;41.932;25.904;2024-02-23T05:18:40;-16238.19;;;6.38;100.00
8705;BME280;4389;41.932;25.904;2024-02-23T05:21:07;-16241.13;;;6.49;100.00
8705;BME280;4389;41.932;25.904;2024-02-23T05:23:35;-16242.97;;;6.56;100.00
8705;BME280;4389;41.932;25.904;2024-02-23T05:26:01;-16245.50;;;6.65;100.00
8705;BME280;4389;41.932;25.904;2024-02-23T05:28:28;-16244.84;;;6.63;100.00
8705;BME280;4389;41.932;25.904;2024-02-23T05:30:55;-16244.06;;;6.60;100.00
8705;BME280;4389;41.932;25.904;2024-02-23T05:33:23;-16245.78;;;6.66;100.00
8705;BME280;4389;41.932;25.904;2024-02-23T05:35:52;-16243.25;;;6.57;100.00
8705;BME280;4389;41.932;25.904;2024-02-23T05:38:23;-16240.19;;;6.45;100.00
8705;BME280;4389;41.932;25.904;2024-02-23T05:40:50;-16244.06;;;6.60;100.00
8705;BME280;4389;41.932;25.904;2024-02-23T05:43:17;-16239.91;;;6.44;100.00
8705;BME280;4389;41.932;25.904;2024-02-23T05:45:44;-16243.91;;;6.59;100.00
8705;BME280;4389;41.932;25.904;2024-02-23T05:48:11;-16250.19;;;6.83;100.00
8705;BME280;4389;41.932;25.904;2024-02-23T05:50:38;-16252.56;;;6.92;100.00
8705;BME280;4389;41.932;25.904;2024-02-23T05:53:06;-16257.38;;;7.10;100.00
8705;BME280;4389;41.932;25.904;2024-02-23T05:55:33;-16259.38;;;7.17;100.00
8705;BME280;4389;41.932;25.904;2024-02-23T05:57:59;-16258.72;;;7.15;100.00
8705;BME280;4389;41.932;25.904;2024-02-23T06:00:26;-16261.63;;;7.26;100.00
8705;BME280;4389;41.932;25.904;2024-02-23T06:02:53;-16261.78;;;7.26;100.00
8705;BME280;4389;41.932;25.904;2024-02-23T06:05:20;-16262.16;;;7.28;100.00
8705;BME280;4389;41.932;25.904;2024-02-23T06:07:47;-16262.97;;;7.31;100.00
8705;BME280;4389;41.932;25.904;2024-02-23T06:10:15;-16260.84;;;7.23;100.00
8705;BME280;4389;41.932;25.904;2024-02-23T06:12:42;-16256.19;;;7.05;100.00
8705;BME280;4389;41.932;25.904;2024-02-23T06:15:09;-16255.78;;;7.04;100.00
8705;BME280;4389;41.932;25.904;2024-02-23T06:17:37;-16258.56;;;7.14;100.00
8705;BME280;4389;41.932;25.904;2024-02-23T06:20:07;-16259.50;;;7.18;100.00
8705;BME280;4389;41.932;25.904;2024-02-23T06:22:35;-16261.63;;;7.26;100.00
8705;BME280;4389;41.932;25.904;2024-02-23T06:25:02;-16260.84;;;7.23;100.00
8705;BME280;4389;41.932;25.904;2024-02-23T06:27:30;-16261.09;;;7.24;100.00
8705;BME280;4389;41.932;25.904;2024-02-23T06:29:57;-16263.22;;;7.32;100.00
8705;BME280;4389;41.932;25.904;2024-02-23T06:32:23;-16264.84;;;7.38;100.00
8705;BME280;4389;41.932;25.904;2024-02-23T06:34:50;-16268.44;;;7.51;100.00
8705;BME280;4389;41.932;25.904;2024-02-23T06:37:17;-16273.75;;;7.71;100.00
8705;BME280;4389;41.932;25.904;2024-02-23T06:39:45;-16276.03;;;7.80;100.00
8705;BME280;4389;41.932;25.904;2024-02-23T06:42:16;-16276.81;;;7.83;100.00
8705;BME280;4389;41.932;25.904;2024-02-23T06:44:44;-16275.63;;;7.78;100.00
8705;BME280;4389;41.932;25.904;2024-02-23T06:47:11;-16276.94;;;7.83;100.00
8705;BME280;4389;41.932;25.904;2024-02-23T06:49:41;-16279.47;;;7.93;100.00
8705;BME280;4389;41.932;25.904;2024-02-23T06:52:08;-16281.88;;;8.02;100.00
8705;BME280;4389;41.932;25.904;2024-02-23T06:54:35;-16283.22;;;8.07;100.00
8705;BME280;4389;41.932;25.904;2024-02-23T06:57:02;-16284.00;;;8.10;100.00
8705;BME280;4389;41.932;25.904;2024-02-23T06:59:29;-16287.75;;;8.24;100.00
8705;BME280;4389;41.932;25.904;2024-02-23T07:01:58;-16289.59;;;8.31;100.00
8705;BME280;4389;41.932;25.904;2024-02-23T07:04:25;-16290.13;;;8.33;100.00
8705;BME280;4389;41.932;25.904;2024-02-23T07:06:53;-16293.72;;;8.46;100.00
8705;BME280;4389;41.932;25.904;2024-02-23T07:09:19;-16297.06;;;8.59;100.00
8705;BME280;4389;41.932;25.904;2024-02-23T07:11:46;-16294.66;;;8.50;100.00
8705;BME280;4389;41.932;25.904;2024-02-23T07:14:13;-16295.19;;;8.52;100.00
8705;BME280;4389;41.932;25.904;2024-02-23T07:16:42;-16294.13;;;8.48;100.00
8705;BME280;4389;41.932;25.904;2024-02-23T07:19:10;-16296.78;;;8.58;100.00
8705;BME280;4389;41.932;25.904;2024-02-23T07:21:38;-16295.88;;;8.54;100.00
8705;BME280;4389;41.932;25.904;2024-02-23T07:24:05;-16296.78;;;8.58;100.00
8705;BME280;4389;41.932;25.904;2024-02-23T07:26:32;-16297.84;;;8.62;100.00
8705;BME280;4389;41.932;25.904;2024-02-23T07:28:59;-16299.19;;;8.67;100.00
8705;BME280;4389;41.932;25.904;2024-02-23T07:31:26;-16301.84;;;8.77;100.00
8705;BME280;4389;41.932;25.904;2024-02-23T07:33:52;-16301.72;;;8.76;100.00
8705;BME280;4389;41.932;25.904;2024-02-23T07:36:21;-16302.13;;;8.78;100.00
8705;BME280;4389;41.932;25.904;2024-02-23T07:38:47;-16300.00;;;8.70;100.00
8705;BME280;4389;41.932;25.904;2024-02-23T07:41:15;-16302.91;;;8.81;100.00
8705;BME280;4389;41.932;25.904;2024-02-23T07:43:43;-16308.50;;;9.01;100.00
8705;BME280;4389;41.932;25.904;2024-02-23T07:46:10;-16310.38;;;9.08;100.00
8705;BME280;4389;41.932;25.904;2024-02-23T07:48:37;-16310.91;;;9.10;100.00
8705;BME280;4389;41.932;25.904;2024-02-23T07:51:05;-16309.03;;;9.03;100.00
8705;BME280;4389;41.932;25.904;2024-02-23T07:53:33;-16307.72;;;8.98;100.00
8705;BME280;4389;41.932;25.904;2024-02-23T07:56:00;-16306.91;;;8.95;100.00
8705;BME280;4389;41.932;25.904;2024-02-23T07:58:28;-16311.16;;;9.11;100.00
8705;BME280;4389;41.932;25.904;2024-02-23T08:00:54;-16311.97;;;9.14;100.00
8705;BME280;4389;41.932;25.904;2024-02-23T08:03:22;-16316.50;;;9.31;100.00
8705;BME280;4389;41.932;25.904;2024-02-23T08:05:49;-16321.28;;;9.49;100.00
8705;BME280;4389;41.932;25.904;2024-02-23T08:08:16;-16322.88;;;9.55;100.00
8705;BME280;4389;41.932;25.904;2024-02-23T08:10:44;-16325.13;;;9.64;100.00
8705;BME280;4389;41.932;25.904;2024-02-23T08:13:11;-16330.31;;;9.83;100.00
8705;BME280;4389;41.932;25.904;2024-02-23T08:15:37;-16335.91;;;10.04;100.00
8705;BME280;4389;41.932;25.904;2024-02-23T08:18:05;-16338.31;;;10.13;100.00
8705;BME280;4389;41.932;25.904;2024-02-23T08:20:31;-16341.50;;;10.25;100.00
8705;BME280;4389;41.932;25.904;2024-02-23T08:22:58;-16344.97;;;10.38;100.00
8705;BME280;4389;41.932;25.904;2024-02-23T08:25:25;-16350.41;;;10.59;100.00
8705;BME280;4389;41.932;25.904;2024-02-23T08:27:55;-16355.34;;;10.77;100.00
8705;BME280;4389;41.932;25.904;2024-02-23T08:30:23;-16358.25;;;10.88;100.00
8705;BME280;4389;41.932;25.904;2024-02-23T08:32:51;-16360.38;;;10.96;100.00
8705;BME280;4389;41.932;25.904;2024-02-23T08:35:19;-16362.53;;;11.04;100.00
8705;BME280;4389;41.932;25.904;2024-02-23T08:37:46;-16366.25;;;11.18;100.00
8705;BME280;4389;41.932;25.904;2024-02-23T08:40:14;-16371.03;;;11.36;100.00
8705;BME280;4389;41.932;25.904;2024-02-23T08:42:41;-16371.28;;;11.37;100.00
8705;BME280;4389;41.932;25.904;2024-02-23T08:45:09;-16375.94;;;11.55;100.00
8705;BME280;4389;41.932;25.904;2024-02-23T08:47:38;-16382.72;;;11.80;100.00
8705;BME280;4389;41.932;25.904;2024-02-23T08:50:06;-16390.03;;;12.08;100.00
8705;BME280;4389;41.932;25.904;2024-02-23T08:52:33;-16394.69;;;12.25;100.00
8705;BME280;4389;41.932;25.904;2024-02-23T08:54:59;-16398.16;;;12.38;100.00
8705;BME280;4389;41.932;25.904;2024-02-23T08:57:27;-16398.41;;;12.39;100.00
8705;BME280;4389;41.932;25.904;2024-02-23T08:59:54;-16398.41;;;12.39;100.00
8705;BME280;4389;41.932;25.904;2024-02-23T09:02:24;-16402.13;;;12.53;100.00
8705;BME280;4389;41.932;25.904;2024-02-23T09:04:51;-16410.91;;;12.86;100.00
8705;BME280;4389;41.932;25.904;2024-02-23T09:07:18;-16411.69;;;12.89;100.00
8705;BME280;4389;41.932;25.904;2024-02-23T09:09:46;-16413.28;;;12.95;100.00
8705;BME280;4389;41.932;25.904;2024-02-23T09:12:14;-16412.50;;;12.92;100.00
8705;BME280;4389;41.932;25.904;2024-02-23T09:14:42;-16411.56;;;12.89;100.00
8705;BME280;4389;41.932;25.904;2024-02-23T09:17:08;-16410.63;;;12.85;100.00
8705;BME280;4389;41.932;25.904;2024-02-23T09:19:38;-16409.03;;;12.79;100.00
8705;BME280;4389;41.932;25.904;2024-02-23T09:22:04;-16410.50;;;12.85;100.00
8705;BME280;4389;41.932;25.904;2024-02-23T09:24:31;-16413.56;;;12.96;100.00
8705;BME280;4389;41.932;25.904;2024-02-23T09:26:58;-16421.41;;;13.26;100.00
8705;BME280;4389;41.932;25.904;2024-02-23T09:29:25;-16421.94;;;13.28;100.00
8705;BME280;4389;41.932;25.904;2024-02-23T09:31:52;-16419.81;;;13.20;100.00
8705;BME280;4389;41.932;25.904;2024-02-23T09:34:19;-16423.78;;;13.35;100.00
8705;BME280;4389;41.932;25.904;2024-02-23T09:36:49;-16424.06;;;13.36;100.00
8705;BME280;4389;41.932;25.904;2024-02-23T09:39:16;-16427.38;;;13.48;100.00
8705;BME280;4389;41.932;25.904;2024-02-23T09:41:43;-16432.97;;;13.69;100.00
8705;BME280;4389;41.932;25.904;2024-02-23T09:44:10;-16438.13;;;13.88;100.00
8705;BME280;4389;41.932;25.904;2024-02-23T09:46:40;-16438.53;;;13.90;100.00
8705;BME280;4389;41.932;25.904;2024-02-23T09:49:07;-16443.72;;;14.09;100.00
8705;BME280;4389;41.932;25.904;2024-02-23T09:51:35;-16446.25;;;14.19;100.00
8705;BME280;4389;41.932;25.904;2024-02-23T09:54:05;-16448.88;;;14.29;100.00
8705;BME280;4389;41.932;25.904;2024-02-23T09:56:32;-16455.66;;;14.54;100.00
8705;BME280;4389;41.932;25.904;2024-02-23T09:59:03;-16460.03;;;14.71;100.00
8705;BME280;4389;41.932;25.904;2024-02-23T10:01:31;-16464.56;;;14.88;100.00
8705;BME280;4389;41.932;25.904;2024-02-23T10:04:00;-16467.72;;;15.00;96.74
8705;BME280;4389;41.932;25.904;2024-02-23T10:06:28;-16467.22;;;14.98;94.79
8705;BME280;4389;41.932;25.904;2024-02-23T10:08:55;-16470.13;;;15.09;93.70
8705;BME280;4389;41.932;25.904;2024-02-23T10:11:24;-16472.38;;;15.17;92.16
8705;BME280;4389;41.932;25.904;2024-02-23T10:13:51;-16474.09;;;15.24;91.81
8705;BME280;4389;41.932;25.904;2024-02-23T10:16:19;-16476.91;;;15.34;90.26
8705;BME280;4389;41.932;25.904;2024-02-23T10:18:47;-16478.63;;;15.41;89.47
8705;BME280;4389;41.932;25.904;2024-02-23T10:21:14;-16481.28;;;15.51;89.39
8705;BME280;4389;41.932;25.904;2024-02-23T10:23:42;-16484.19;;;15.62;86.38
8705;BME280;4389;41.932;25.904;2024-02-23T10:26:10;-16487.63;;;15.75;83.83
8705;BME280;4389;41.932;25.904;2024-02-23T10:28:38;-16491.34;;;15.89;81.71
8705;BME280;4389;41.932;25.904;2024-02-23T10:31:05;-16494.28;;;16.00;80.08
8705;BME280;4389;41.932;25.904;2024-02-23T10:33:32;-16500.25;;;16.22;77.89
8705;BME280;4389;41.932;25.904;2024-02-23T10:36:00;-16508.59;;;16.54;77.56
8705;BME280;4389;41.932;25.904;2024-02-23T10:38:32;-16513.75;;;16.73;73.72
8705;BME280;4389;41.932;25.904;2024-02-23T10:41:01;-16522.25;;;17.05;71.08
8705;BME280;4389;41.932;25.904;2024-02-23T10:43:33;-16528.47;;;17.29;69.13
8705;BME280;4389;41.932;25.904;2024-02-23T10:46:04;-16532.19;;;17.43;66.91
8705;BME280;4389;41.932;25.904;2024-02-23T10:48:34;-16532.31;;;17.43;64.96
8705;BME280;4389;41.932;25.904;2024-02-23T10:51:03;-16545.19;;;17.92;57.29
8705;BME280;4389;41.932;25.904;2024-02-23T10:53:32;-16557.38;;;18.38;53.71
8705;BME280;4389;41.932;25.904;2024-02-23T10:56:00;-16565.56;;;18.69;51.61
8705;BME280;4389;41.932;25.904;2024-02-23T10:58:27;-16562.66;;;18.58;55.55
8705;BME280;4389;41.932;25.904;2024-02-23T11:00:58;-16562.53;;;18.57;56.31
8705;BME280;4389;41.932;25.904;2024-02-23T11:03:30;-16563.59;;;18.61;56.06
8705;BME280;4389;41.932;25.904;2024-02-23T11:05:59;-16567.28;;;18.75;50.63
8705;BME280;4389;41.932;25.904;2024-02-23T11:08:28;-16568.75;;;18.81;50.19
8705;BME280;4389;41.932;25.904;2024-02-23T11:10:55;-16570.88;;;18.88;49.29
8705;BME280;4389;41.932;25.904;2024-02-23T11:13:30;-16577.88;;;19.15;49.85
8705;BME280;4389;41.932;25.904;2024-02-23T11:16:01;-16582.94;;;19.34;50.12
8705;BME280;4389;41.932;25.904;2024-02-23T11:18:30;-16582.94;;;19.34;49.45
8705;BME280;4389;41.932;25.904;2024-02-23T11:21:00;-16585.16;;;19.42;48.96
8705;BME280;4389;41.932;25.904;2024-02-23T11:23:39;-16587.28;;;19.50;48.62
8705;BME280;4389;41.932;25.904;2024-02-23T11:26:06;-16583.72;;;19.37;48.79
8705;BME280;4389;41.932;25.904;2024-02-23T11:28:42;-16581.72;;;19.29;46.73
8705;BME280;4389;41.932;25.904;2024-02-23T11:31:14;-16582.38;;;19.32;47.71
8705;BME280;4389;41.932;25.904;2024-02-23T11:33:49;-16586.91;;;19.49;47.12
8705;BME280;4389;41.932;25.904;2024-02-23T11:36:23;-16585.16;;;19.42;46.22
8705;BME280;4389;41.932;25.904;2024-02-23T11:38:54;-16584.91;;;19.41;45.74
8705;BME280;4389;41.932;25.904;2024-02-23T11:41:22;-16586.75;;;19.48;46.33
8705;BME280;4389;41.932;25.904;2024-02-23T11:43:50;-16587.03;;;19.49;46.08
8705;BME280;4389;41.932;25.904;2024-02-23T11:46:17;-16589.28;;;19.58;45.36
8705;BME280;4389;41.932;25.904;2024-02-23T11:48:43;-16593.38;;;19.73;46.19
8705;BME280;4389;41.932;25.904;2024-02-23T11:51:13;-16592.31;;;19.69;46.40
8705;BME280;4389;41.932;25.904;2024-02-23T11:53:41;-16590.47;;;19.62;46.55
8705;BME280;4389;41.932;25.904;2024-02-23T11:56:09;-16590.34;;;19.62;45.98
8705;BME280;4389;41.932;25.904;2024-02-23T11:58:36;-16591.25;;;19.65;46.70
8705;BME280;4389;41.932;25.904;2024-02-23T12:01:03;-16591.25;;;19.65;47.08
8705;BME280;4389;41.932;25.904;2024-02-23T12:03:32;-16591.00;;;19.64;46.90
8705;BME280;4389;41.932;25.904;2024-02-23T12:06:00;-16591.00;;;19.64;46.86
8705;BME280;4389;41.932;25.904;2024-02-23T12:08:30;-16592.31;;;19.69;46.32
8705;BME280;4389;41.932;25.904;2024-02-23T12:11:03;-16587.41;;;19.51;47.00
8705;BME280;4389;41.932;25.904;2024-02-23T12:13:31;-16587.81;;;19.52;47.08
8705;BME280;4389;41.932;25.904;2024-02-23T12:15:58;-16589.41;;;19.58;47.76
8705;BME280;4389;41.932;25.904;2024-02-23T12:18:24;-16593.25;;;19.73;47.08
8705;BME280;4389;41.932;25.904;2024-02-23T12:20:52;-16593.66;;;19.74;46.76
8705;BME280;4389;41.932;25.904;2024-02-23T12:23:19;-16594.97;;;19.79;46.44
8705;BME280;4389;41.932;25.904;2024-02-23T12:25:53;-16597.47;;;19.89;46.13
8705;BME280;4389;41.932;25.904;2024-02-23T12:28:21;-16597.63;;;19.89;45.69
8705;BME280;4389;41.932;25.904;2024-02-23T12:30:59;-16598.94;;;19.94;46.25
8705;BME280;4389;41.932;25.904;2024-02-23T12:33:27;-16601.59;;;20.04;46.10
8705;BME280;4389;41.932;25.904;2024-02-23T12:35:55;-16600.00;;;19.98;45.92
8705;BME280;4389;41.932;25.904;2024-02-23T12:38:22;-16600.53;;;20.00;45.50
8705;BME280;4389;41.932;25.904;2024-02-23T12:40:50;-16602.13;;;20.06;44.80
8705;BME280;4389;41.932;25.904;2024-02-23T12:43:18;-16603.44;;;20.11;45.08
8705;BME280;4389;41.932;25.904;2024-02-23T12:45:47;-16602.66;;;20.08;45.48
8705;BME280;4389;41.932;25.904;2024-02-23T12:48:15;-16598.41;;;19.92;45.86
8705;BME280;4389;41.932;25.904;2024-02-23T12:50:42;-16601.31;;;20.03;45.46
8705;BME280;4389;41.932;25.904;2024-02-23T12:53:11;-16599.88;;;19.98;46.01
8705;BME280;4389;41.932;25.904;2024-02-23T12:55:58;-16601.19;;;20.03;45.53
8705;BME280;4389;41.932;25.904;2024-02-23T12:58:26;-16601.19;;;20.03;45.43
8705;BME280;4389;41.932;25.904;2024-02-23T13:00:53;-16600.25;;;19.99;45.68
8705;BME280;4389;41.932;25.904;2024-02-23T13:03:20;-16601.84;;;20.05;45.85